Time;durP1;ratioP1;P1;durP2;ratioP2;P2;SDS_P1;SDS_P2;PMS_P1;PMS_P2;Temp;Humidity;BMP_temperature;BMP_pressure;BME280_temperature;BME280_humidity;BME280_pressure;Samples;Min_cycle;Max_cycle;Signal;HPM_P1;HPM_P2
2023/02/26 00:01:30;;;;;;;4.00;2.70;;;6.20;99.30;;;;;;5050045;28;20300;-71
2023/02/26 00:04:00;;;;;;;6.93;2.53;;;6.20;99.40;;;;;;5033638;28;20215;-72
2023/02/26 00:06:27;;;;;;;4.85;2.53;;;6.20;99.40;;;;;;5049557;28;20209;-71
2023/02/26 00:08:53;;;;;;;4.00;2.22;;;6.20;99.40;;;;;;5033500;28;20673;-71
2023/02/26 00:11:24;;;;;;;3.60;2.13;;;6.20;99.40;;;;;;5057211;28;20176;-71
2023/02/26 00:13:53;;;;;;;3.20;2.50;;;6.20;99.40;;;;;;5058446;28;20181;-71
2023/02/26 00:16:31;;;;;;;3.90;2.40;;;6.20;99.40;;;;;;5060192;28;20603;-71
2023/02/26 00:19:04;;;;;;;4.35;2.30;;;6.20;99.40;;;;;;5053428;28;20709;-71
2023/02/26 00:21:34;;;;;;;6.63;2.20;;;6.20;99.40;;;;;;5059687;28;20667;-71
2023/02/26 00:24:05;;;;;;;4.45;2.35;;;6.20;99.50;;;;;;5060892;28;20205;-71
2023/02/26 00:26:32;;;;;;;5.13;2.45;;;6.20;99.50;;;;;;5055713;28;20227;-72
2023/02/26 00:29:02;;;;;;;4.20;2.10;;;6.20;99.50;;;;;;5060961;28;20208;-71
2023/02/26 00:31:28;;;;;;;4.17;2.80;;;6.10;99.50;;;;;;5022069;28;20180;-71
2023/02/26 00:34:01;;;;;;;3.20;2.40;;;6.10;99.50;;;;;;5061129;28;20398;-71
2023/02/26 00:37:00;;;;;;;2.45;2.05;;;6.10;99.50;;;;;;5059318;28;20185;-70
2023/02/26 00:39:37;;;;;;;3.53;2.22;;;6.10;99.60;;;;;;5041807;28;20180;-71
2023/02/26 00:42:04;;;;;;;4.95;2.30;;;6.10;99.60;;;;;;5035912;28;20708;-71
2023/02/26 00:44:30;;;;;;;6.05;2.42;;;6.10;99.60;;;;;;5042578;28;20603;-71
2023/02/26 00:47:34;;;;;;;3.95;2.20;;;6.10;99.70;;;;;;5049868;28;20206;-72
2023/02/26 00:50:16;;;;;;;4.95;2.30;;;6.00;99.70;;;;;;5034697;28;20162;-71
2023/02/26 00:52:45;;;;;;;3.65;2.20;;;6.00;99.70;;;;;;5036997;28;20220;-71
2023/02/26 00:55:11;;;;;;;2.35;1.75;;;6.00;99.70;;;;;;5034126;28;20682;-71
2023/02/26 00:57:37;;;;;;;3.13;1.85;;;6.00;99.70;;;;;;5036360;28;20296;-71
2023/02/26 01:00:06;;;;;;;5.97;2.17;;;6.10;99.80;;;;;;5053187;28;20343;-72
2023/02/26 01:02:36;;;;;;;5.63;2.17;;;6.10;99.80;;;;;;5053020;28;20415;-72
2023/02/26 01:05:05;;;;;;;3.55;2.00;;;6.00;99.80;;;;;;5016252;28;20209;-71
2023/02/26 01:07:46;;;;;;;4.13;1.98;;;6.00;99.80;;;;;;5019948;28;20206;-71
2023/02/26 01:10:14;;;;;;;3.20;2.20;;;6.00;99.80;;;;;;5055232;28;20210;-71
2023/02/26 01:12:44;;;;;;;3.35;1.90;;;6.00;99.80;;;;;;5047338;28;20186;-71
2023/02/26 01:15:10;;;;;;;2.60;1.90;;;6.00;99.80;;;;;;5042342;28;20216;-71
2023/02/26 01:20:34;;;;;;;3.40;2.00;;;6.00;99.80;;;;;;5047442;28;20286;-73
2023/02/26 01:23:08;;;;;;;5.50;2.05;;;6.00;99.80;;;;;;5051367;28;20212;-73
2023/02/26 01:25:40;;;;;;;4.43;1.58;;;6.00;99.90;;;;;;5019048;28;20198;-75
2023/02/26 01:28:11;;;;;;;2.53;1.55;;;6.00;99.90;;;;;;5065438;28;20215;-74
2023/02/26 01:30:37;;;;;;;3.53;2.00;;;6.00;99.90;;;;;;5055518;28;20192;-75
2023/02/26 01:33:24;;;;;;;4.75;2.20;;;6.00;99.90;;;;;;5055582;28;20173;-74
2023/02/26 01:36:02;;;;;;;2.25;1.67;;;6.00;99.90;;;;;;5055646;28;20204;-74
2023/02/26 01:38:42;;;;;;;3.65;2.10;;;6.00;99.90;;;;;;5038848;28;20203;-74
2023/02/26 01:41:28;;;;;;;3.13;1.83;;;5.90;99.90;;;;;;5055221;28;20338;-73
2023/02/26 01:44:13;;;;;;;4.05;1.90;;;6.00;99.90;;;;;;5055411;28;20205;-74
2023/02/26 01:46:48;;;;;;;3.15;2.03;;;6.00;99.90;;;;;;5054559;28;20676;-74
2023/02/26 01:49:18;;;;;;;1.95;1.48;;;5.90;99.90;;;;;;5072099;28;20179;-74
2023/02/26 01:51:51;;;;;;;2.95;1.90;;;5.90;99.90;;;;;;5044041;28;20268;-74
2023/02/26 01:54:40;;;;;;;2.85;1.45;;;5.90;99.90;;;;;;5038836;28;20256;-74
2023/02/26 01:57:16;;;;;;;2.15;1.77;;;5.90;99.90;;;;;;5054809;28;20200;-74
2023/02/26 01:59:53;;;;;;;3.75;1.80;;;5.90;99.90;;;;;;5071218;28;20258;-74
2023/02/26 02:02:23;;;;;;;1.95;1.33;;;5.90;99.90;;;;;;5054989;28;20308;-74
2023/02/26 02:04:52;;;;;;;2.90;1.95;;;5.90;99.90;;;;;;5054649;28;20610;-75
2023/02/26 02:07:19;;;;;;;2.58;2.00;;;5.90;99.90;;;;;;5054486;28;20226;-74
2023/02/26 02:09:50;;;;;;;3.72;1.85;;;5.90;99.90;;;;;;5038088;28;20632;-73
2023/02/26 02:12:36;;;;;;;3.30;1.85;;;5.90;99.90;;;;;;5072327;28;20190;-74
2023/02/26 02:15:12;;;;;;;3.58;1.80;;;5.90;99.90;;;;;;5054162;28;20614;-74
2023/02/26 02:17:47;;;;;;;3.05;1.75;;;5.90;99.90;;;;;;5071353;28;20668;-74
2023/02/26 02:20:34;;;;;;;2.95;1.90;;;5.90;99.90;;;;;;5054591;28;20182;-74
2023/02/26 02:23:35;;;;;;;4.40;1.75;;;5.80;99.90;;;;;;5071216;28;20213;-74
2023/02/26 02:26:40;;;;;;;1.90;1.45;;;5.90;99.90;;;;;;5038207;28;20179;-74
2023/02/26 02:29:39;;;;;;;3.83;1.70;;;5.80;99.90;;;;;;5039948;28;20188;-74
2023/02/26 02:32:18;;;;;;;3.38;1.83;;;5.80;99.90;;;;;;5021234;28;20193;-74
2023/02/26 02:35:01;;;;;;;2.45;1.70;;;5.80;99.90;;;;;;5054709;28;20210;-74
2023/02/26 02:37:40;;;;;;;3.65;2.33;;;5.80;99.90;;;;;;5034700;28;20216;-74
2023/02/26 02:40:11;;;;;;;3.88;1.70;;;5.80;99.90;;;;;;5051998;28;20371;-74
2023/02/26 02:42:53;;;;;;;4.25;1.70;;;5.80;99.90;;;;;;5085105;28;20268;-74
2023/02/26 02:45:40;;;;;;;2.33;1.60;;;5.80;99.90;;;;;;5037581;28;20288;-73
2023/02/26 02:48:16;;;;;;;4.65;2.00;;;5.70;99.90;;;;;;5070757;28;20442;-74
2023/02/26 02:50:48;;;;;;;3.90;1.67;;;5.70;99.90;;;;;;5053895;28;20302;-74
2023/02/26 02:53:18;;;;;;;2.47;1.80;;;5.80;99.90;;;;;;5070810;28;20161;-74
2023/02/26 02:56:00;;;;;;;4.40;1.55;;;5.80;99.90;;;;;;5070660;28;20173;-74
2023/02/26 02:58:31;;;;;;;2.22;1.52;;;5.80;99.90;;;;;;5070704;28;20243;-74
2023/02/26 03:01:04;;;;;;;2.70;1.65;;;5.80;99.90;;;;;;5065976;28;20189;-74
2023/02/26 03:03:56;;;;;;;3.85;1.67;;;5.80;99.90;;;;;;5066316;28;20216;-74
2023/02/26 03:06:25;;;;;;;2.22;1.35;;;5.80;99.90;;;;;;5061596;28;20629;-74
2023/02/26 03:08:52;;;;;;;4.53;1.53;;;5.80;99.90;;;;;;5052677;28;20201;-74
2023/02/26 03:11:18;;;;;;;2.72;1.65;;;5.70;99.90;;;;;;5036249;28;20442;-74
2023/02/26 03:13:47;;;;;;;2.95;1.30;;;5.70;99.90;;;;;;5036805;28;20580;-74
2023/02/26 03:16:51;;;;;;;1.75;1.40;;;5.70;99.90;;;;;;5070547;28;20686;-74
2023/02/26 03:19:29;;;;;;;3.60;1.33;;;5.70;99.90;;;;;;5071595;28;20222;-74
2023/02/26 03:21:58;;;;;;;2.30;1.60;;;5.70;99.90;;;;;;5020304;28;20214;-74
2023/02/26 03:25:03;;;;;;;2.45;1.30;;;5.70;99.90;;;;;;5033049;28;20735;-74
2023/02/26 03:27:35;;;;;;;3.13;1.30;;;5.70;99.90;;;;;;5070258;28;20724;-74
2023/02/26 03:30:14;;;;;;;4.07;1.63;;;5.70;99.90;;;;;;5030859;28;20210;-74
2023/02/26 03:33:19;;;;;;;2.03;1.20;;;5.70;99.90;;;;;;5039565;28;20198;-74
2023/02/26 03:35:49;;;;;;;2.90;1.65;;;5.70;99.90;;;;;;5037437;28;20188;-74
2023/02/26 03:38:29;;;;;;;1.73;1.30;;;5.60;99.90;;;;;;5036742;28;20261;-74
2023/02/26 03:41:06;;;;;;;2.95;1.77;;;5.60;99.90;;;;;;5036555;28;20207;-74
2023/02/26 03:43:43;;;;;;;1.88;1.50;;;5.60;99.90;;;;;;5020729;28;20650;-74
2023/02/26 03:46:29;;;;;;;2.38;1.20;;;5.60;99.90;;;;;;5053302;28;20659;-73
2023/02/26 03:49:00;;;;;;;2.90;1.35;;;5.60;99.90;;;;;;5070188;28;20677;-74
2023/02/26 03:51:31;;;;;;;3.70;1.50;;;5.60;99.90;;;;;;5086527;28;20180;-74
2023/02/26 03:54:29;;;;;;;1.60;1.45;;;5.60;99.90;;;;;;5055387;28;20595;-74
2023/02/26 03:57:13;;;;;;;2.42;1.63;;;5.60;99.90;;;;;;5039617;28;20203;-74
2023/02/26 03:59:59;;;;;;;1.55;1.35;;;5.60;99.90;;;;;;5036889;28;20265;-74
2023/02/26 04:02:46;;;;;;;4.05;1.90;;;5.50;99.90;;;;;;5070441;28;20197;-74
2023/02/26 04:05:22;;;;;;;3.25;1.95;;;5.60;99.90;;;;;;5053103;28;20196;-74
2023/02/26 04:07:50;;;;;;;1.50;1.40;;;5.60;99.90;;;;;;5036690;28;20199;-74
2023/02/26 04:10:24;;;;;;;1.98;1.60;;;5.60;99.90;;;;;;5036294;28;20207;-74
2023/02/26 04:12:53;;;;;;;2.42;1.65;;;5.60;99.90;;;;;;5036123;28;20654;-74
2023/02/26 04:15:19;;;;;;;3.90;1.50;;;5.60;99.90;;;;;;5053063;28;20210;-74
2023/02/26 04:17:50;;;;;;;2.65;1.50;;;5.60;99.90;;;;;;5053429;28;20214;-74
2023/02/26 04:20:16;;;;;;;1.58;1.20;;;5.60;99.90;;;;;;5034246;28;20258;-74
2023/02/26 04:22:44;;;;;;;3.15;1.60;;;5.50;99.90;;;;;;5034439;28;20190;-74
2023/02/26 04:25:15;;;;;;;5.45;1.25;;;5.50;99.90;;;;;;5020183;28;20215;-74
2023/02/26 04:27:41;;;;;;;2.08;1.35;;;5.50;99.90;;;;;;5073443;28;20198;-74
2023/02/26 04:30:14;;;;;;;2.50;1.52;;;5.50;99.90;;;;;;5057606;28;20625;-73
2023/02/26 04:32:43;;;;;;;4.65;1.75;;;5.50;99.90;;;;;;5040478;28;20214;-74
2023/02/26 04:35:10;;;;;;;2.00;1.30;;;5.50;99.90;;;;;;5023912;28;20216;-74
2023/02/26 04:37:38;;;;;;;2.85;1.42;;;5.50;99.90;;;;;;5057002;28;20208;-74
2023/02/26 04:40:08;;;;;;;1.53;1.20;;;5.50;99.90;;;;;;5073811;28;20199;-74
2023/02/26 04:42:38;;;;;;;3.90;1.48;;;5.50;99.90;;;;;;5053521;28;20442;-74
2023/02/26 04:45:08;;;;;;;3.38;1.42;;;5.50;99.90;;;;;;5070078;28;20202;-74
2023/02/26 04:47:36;;;;;;;1.95;1.42;;;5.50;99.90;;;;;;5055807;28;20197;-74
2023/02/26 04:50:03;;;;;;;2.55;1.10;;;5.50;99.90;;;;;;5039384;28;20679;-74
2023/02/26 04:52:32;;;;;;;3.25;1.80;;;5.50;99.90;;;;;;5056346;28;20167;-73
2023/02/26 04:54:58;;;;;;;2.03;1.25;;;5.50;99.90;;;;;;5039816;28;20172;-73
2023/02/26 04:57:24;;;;;;;3.77;1.60;;;5.50;99.90;;;;;;5055665;28;20290;-73
2023/02/26 04:59:51;;;;;;;4.93;1.30;;;5.40;99.90;;;;;;5040829;28;20447;-73
2023/02/26 05:02:17;;;;;;;4.07;1.50;;;5.40;99.90;;;;;;5072807;28;20172;-73
2023/02/26 05:04:46;;;;;;;1.92;1.50;;;5.40;99.90;;;;;;5072728;28;20807;-73
2023/02/26 05:07:15;;;;;;;4.05;1.27;;;5.40;99.90;;;;;;5071900;28;20203;-73
2023/02/26 05:09:41;;;;;;;3.97;1.45;;;5.40;99.90;;;;;;5071061;28;20633;-73
2023/02/26 05:12:07;;;;;;;2.22;1.30;;;5.40;99.90;;;;;;5065424;28;20196;-74
2023/02/26 05:14:36;;;;;;;1.70;1.23;;;5.40;99.90;;;;;;5062509;28;20211;-73
2023/02/26 05:17:04;;;;;;;1.33;1.20;;;5.40;99.90;;;;;;5074268;28;20491;-73
2023/02/26 05:19:33;;;;;;;2.37;1.57;;;5.40;99.90;;;;;;5055695;28;20623;-73
2023/02/26 05:22:01;;;;;;;1.83;1.30;;;5.40;99.90;;;;;;5039404;28;20410;-73
2023/02/26 05:24:29;;;;;;;3.75;1.35;;;5.40;99.90;;;;;;5055827;28;20202;-73
2023/02/26 05:27:01;;;;;;;2.80;1.50;;;5.40;99.90;;;;;;5039852;28;20202;-75
2023/02/26 05:29:29;;;;;;;2.92;1.23;;;5.40;99.90;;;;;;5035546;28;20651;-75
2023/02/26 05:31:56;;;;;;;1.92;1.08;;;5.30;99.90;;;;;;5035993;28;20165;-74
2023/02/26 05:34:22;;;;;;;3.40;1.73;;;5.30;99.90;;;;;;5046019;28;20194;-74
2023/02/26 05:36:48;;;;;;;3.20;1.13;;;5.30;99.90;;;;;;5055878;28;20181;-74
2023/02/26 05:39:14;;;;;;;3.10;1.25;;;5.30;99.90;;;;;;5071090;28;20966;-74
2023/02/26 05:41:40;;;;;;;2.03;1.33;;;5.30;99.90;;;;;;5072707;28;20215;-74
2023/02/26 05:44:08;;;;;;;2.83;1.57;;;5.30;99.90;;;;;;5057282;28;20196;-74
2023/02/26 05:46:34;;;;;;;2.97;1.40;;;5.30;99.90;;;;;;5073329;28;20441;-74
2023/02/26 05:49:00;;;;;;;3.43;1.57;;;5.30;99.90;;;;;;5038383;28;20207;-74
2023/02/26 05:51:27;;;;;;;4.00;1.33;;;5.30;99.90;;;;;;5055067;28;20571;-74
2023/02/26 05:53:56;;;;;;;3.97;1.60;;;5.30;99.90;;;;;;5067751;28;20472;-75
2023/02/26 05:56:22;;;;;;;3.25;1.30;;;5.30;99.90;;;;;;5035140;28;20258;-74
2023/02/26 05:58:51;;;;;;;2.75;1.45;;;5.30;99.90;;;;;;5068820;28;20202;-74
2023/02/26 06:01:17;;;;;;;2.00;1.23;;;5.30;99.90;;;;;;5073072;28;20197;-74
2023/02/26 06:03:43;;;;;;;1.48;1.15;;;5.30;99.90;;;;;;5038673;28;20241;-74
2023/02/26 06:06:11;;;;;;;2.75;1.10;;;5.20;99.90;;;;;;5038711;28;20621;-74
2023/02/26 06:08:37;;;;;;;2.28;1.30;;;5.30;99.90;;;;;;5037953;28;20211;-75
2023/02/26 06:11:06;;;;;;;3.50;1.30;;;5.20;99.90;;;;;;5038437;28;20207;-74
2023/02/26 06:13:32;;;;;;;1.88;1.30;;;5.20;99.90;;;;;;5054875;28;20537;-71
2023/02/26 06:15:58;;;;;;;2.85;1.33;;;5.20;99.90;;;;;;5037864;28;20569;-71
2023/02/26 06:18:25;;;;;;;3.95;1.55;;;5.20;99.90;;;;;;5054807;28;20218;-71
2023/02/26 06:20:52;;;;;;;5.65;1.98;;;5.20;99.90;;;;;;5054536;28;20199;-71
2023/02/26 06:23:20;;;;;;;1.88;1.33;;;5.20;99.90;;;;;;5054327;28;20175;-71
2023/02/26 06:25:46;;;;;;;2.75;1.05;;;5.20;99.90;;;;;;5072080;28;20280;-70
2023/02/26 06:28:12;;;;;;;1.00;0.87;;;5.20;99.90;;;;;;5054731;28;20724;-71
2023/02/26 06:30:41;;;;;;;1.42;1.20;;;5.20;99.90;;;;;;5063000;28;20899;-70
2023/02/26 06:33:13;;;;;;;2.42;1.10;;;5.20;99.90;;;;;;5036630;28;20241;-70
2023/02/26 06:35:41;;;;;;;2.08;1.10;;;5.20;99.90;;;;;;5049345;28;20181;-70
2023/02/26 06:38:09;;;;;;;2.42;1.23;;;5.20;99.90;;;;;;5035951;28;20200;-70
2023/02/26 06:40:38;;;;;;;6.70;1.25;;;5.20;99.90;;;;;;5034958;28;20591;-70
2023/02/26 06:43:06;;;;;;;3.30;1.20;;;5.10;99.90;;;;;;5036325;28;20215;-70
2023/02/26 06:45:32;;;;;;;2.83;1.50;;;5.10;99.90;;;;;;5051631;28;20193;-70
2023/02/26 06:48:01;;;;;;;1.65;1.55;;;5.10;99.90;;;;;;5052655;28;20300;-70
2023/02/26 06:50:27;;;;;;;2.92;1.30;;;5.10;99.90;;;;;;5052212;28;20535;-70
2023/02/26 06:52:54;;;;;;;2.50;1.60;;;5.10;99.90;;;;;;5070486;28;20172;-70
2023/02/26 06:55:25;;;;;;;2.95;1.60;;;5.10;99.90;;;;;;5069935;28;20516;-70
2023/02/26 06:57:53;;;;;;;2.15;1.30;;;5.10;99.90;;;;;;5052042;28;20325;-70
2023/02/26 07:00:26;;;;;;;1.65;1.00;;;5.10;99.90;;;;;;5069508;28;20243;-70
2023/02/26 07:02:52;;;;;;;1.95;1.10;;;5.10;99.90;;;;;;5048825;28;20273;-70
2023/02/26 07:05:18;;;;;;;2.20;1.30;;;5.10;99.90;;;;;;5067739;28;20203;-70
2023/02/26 07:07:44;;;;;;;2.03;1.13;;;5.10;99.90;;;;;;5068145;28;20200;-70
2023/02/26 07:10:11;;;;;;;1.37;1.13;;;5.10;99.90;;;;;;5035740;28;20200;-71
2023/02/26 07:12:37;;;;;;;1.90;1.23;;;5.10;99.90;;;;;;5052046;28;20422;-70
2023/02/26 07:15:05;;;;;;;3.53;1.08;;;5.10;99.90;;;;;;5070156;28;20684;-70
2023/02/26 07:17:34;;;;;;;2.92;1.40;;;5.10;99.90;;;;;;5035268;28;20714;-70
2023/02/26 07:20:05;;;;;;;2.65;1.35;;;5.10;99.90;;;;;;5070249;28;20204;-70
2023/02/26 07:22:33;;;;;;;1.67;1.20;;;5.00;99.90;;;;;;5035364;28;20191;-70
2023/02/26 07:25:01;;;;;;;2.97;1.50;;;5.10;99.90;;;;;;5052362;28;20204;-70
2023/02/26 07:27:32;;;;;;;1.88;1.13;;;5.00;99.90;;;;;;5051341;28;20451;-70
2023/02/26 07:29:59;;;;;;;5.18;1.50;;;5.00;99.90;;;;;;5069525;28;20196;-70
2023/02/26 07:32:25;;;;;;;1.23;0.90;;;5.00;99.90;;;;;;5069299;28;20239;-70
2023/02/26 07:34:54;;;;;;;1.98;1.00;;;5.00;99.90;;;;;;5069550;28;20211;-70
2023/02/26 07:37:20;;;;;;;2.03;1.10;;;5.00;99.90;;;;;;5016948;28;20212;-70
2023/02/26 07:39:46;;;;;;;2.83;1.30;;;5.00;99.90;;;;;;5050515;28;20215;-70
2023/02/26 07:42:14;;;;;;;2.10;1.30;;;4.90;99.90;;;;;;5069361;28;20213;-70
2023/02/26 07:44:43;;;;;;;3.17;1.55;;;5.00;99.90;;;;;;5057463;28;20249;-70
2023/02/26 07:47:10;;;;;;;3.05;1.58;;;5.00;99.90;;;;;;5032144;28;20204;-70
2023/02/26 07:49:36;;;;;;;2.20;1.30;;;4.90;99.90;;;;;;5051762;28;20190;-70
2023/02/26 07:52:08;;;;;;;2.90;1.93;;;4.90;99.90;;;;;;5051591;28;20591;-70
2023/02/26 07:54:36;;;;;;;2.00;1.40;;;4.90;99.90;;;;;;5050686;28;20464;-69
2023/02/26 07:57:04;;;;;;;3.20;1.20;;;4.90;99.90;;;;;;5069835;28;20199;-71
2023/02/26 07:59:30;;;;;;;4.18;1.80;;;4.90;99.90;;;;;;5055733;28;20527;-70
2023/02/26 08:01:56;;;;;;;2.97;1.83;;;4.90;99.90;;;;;;5073359;28;20237;-70
2023/02/26 08:04:22;;;;;;;2.70;1.67;;;4.90;99.90;;;;;;5038738;28;20213;-70
2023/02/26 08:06:48;;;;;;;3.25;1.60;;;4.90;99.90;;;;;;5073560;28;20480;-71
2023/02/26 08:09:17;;;;;;;2.78;1.70;;;4.90;99.90;;;;;;5038778;28;20628;-71
2023/02/26 08:11:46;;;;;;;2.78;1.70;;;4.90;99.90;;;;;;5055469;28;20199;-70
2023/02/26 08:14:12;;;;;;;4.32;1.60;;;4.90;99.90;;;;;;5022537;28;20168;-70
2023/02/26 08:16:41;;;;;;;3.88;1.60;;;4.90;99.90;;;;;;5058142;28;20199;-71
2023/02/26 08:19:07;;;;;;;3.35;1.33;;;4.90;99.90;;;;;;5074824;28;20190;-70
2023/02/26 08:21:35;;;;;;;1.67;1.50;;;4.90;99.90;;;;;;5055488;28;20645;-69
2023/02/26 08:24:01;;;;;;;2.42;1.20;;;4.90;99.90;;;;;;5054858;28;20247;-70
2023/02/26 08:26:27;;;;;;;4.03;1.58;;;4.90;99.90;;;;;;5072948;28;20205;-71
2023/02/26 08:28:56;;;;;;;2.50;1.70;;;4.90;99.80;;;;;;5072329;28;20204;-71
2023/02/26 08:31:27;;;;;;;3.72;1.50;;;4.90;99.70;;;;;;5050359;28;20188;-70
2023/02/26 08:33:59;;;;;;;1.65;1.27;;;4.90;99.70;;;;;;5039240;28;20180;-71
2023/02/26 08:36:30;;;;;;;1.83;1.40;;;4.90;99.60;;;;;;5055006;28;20176;-71
2023/02/26 08:39:01;;;;;;;5.60;1.75;;;4.90;99.70;;;;;;5054858;28;20275;-71
2023/02/26 08:41:31;;;;;;;2.88;1.55;;;4.90;99.60;;;;;;5039433;28;20184;-72
2023/02/26 08:43:58;;;;;;;3.85;1.80;;;4.90;99.60;;;;;;5038128;28;20423;-71
2023/02/26 08:46:27;;;;;;;2.63;1.35;;;4.90;99.60;;;;;;5021850;28;20191;-70
2023/02/26 08:48:53;;;;;;;1.83;1.15;;;4.90;99.50;;;;;;5054413;28;20205;-71
2023/02/26 08:51:20;;;;;;;2.65;1.65;;;4.90;99.50;;;;;;5037846;28;20436;-71
2023/02/26 08:53:46;;;;;;;3.75;1.30;;;4.90;99.40;;;;;;5066885;28;20177;-71
2023/02/26 08:56:13;;;;;;;1.38;1.20;;;4.90;99.40;;;;;;5034843;28;20184;-71
2023/02/26 08:58:39;;;;;;;4.20;1.60;;;4.90;99.30;;;;;;5054739;28;20204;-70
2023/02/26 09:01:07;;;;;;;2.60;1.60;;;4.90;99.30;;;;;;5049376;28;20252;-71
2023/02/26 09:03:36;;;;;;;1.90;1.20;;;4.90;99.20;;;;;;5053966;28;20188;-70
2023/02/26 09:06:03;;;;;;;2.95;1.50;;;4.90;99.30;;;;;;5053803;28;20196;-70
2023/02/26 09:08:33;;;;;;;6.60;1.13;;;4.90;99.30;;;;;;5069516;28;20204;-70
2023/02/26 09:11:03;;;;;;;2.08;1.30;;;4.90;99.20;;;;;;5037868;28;20203;-71
2023/02/26 09:13:29;;;;;;;2.55;1.10;;;4.90;99.20;;;;;;5050840;28;20192;-71
2023/02/26 09:16:01;;;;;;;3.05;1.45;;;4.90;99.10;;;;;;5038862;28;20268;-71
2023/02/26 09:18:27;;;;;;;1.15;1.00;;;4.90;99.00;;;;;;5053484;28;20207;-70
2023/02/26 09:20:55;;;;;;;5.22;1.63;;;4.90;99.10;;;;;;5070559;28;20171;-70
2023/02/26 09:23:21;;;;;;;3.22;1.40;;;4.90;99.00;;;;;;5071676;28;20693;-71
2023/02/26 09:25:55;;;;;;;3.50;1.90;;;5.00;99.00;;;;;;5060577;28;20200;-70
2023/02/26 09:28:22;;;;;;;3.15;1.38;;;5.00;99.00;;;;;;5044047;28;20201;-71
2023/02/26 09:30:54;;;;;;;2.40;1.25;;;5.00;98.80;;;;;;5038756;28;20187;-70
2023/02/26 09:33:23;;;;;;;2.97;2.05;;;5.00;98.60;;;;;;5054498;28;20263;-71
2023/02/26 09:35:50;;;;;;;2.47;1.70;;;5.00;98.60;;;;;;5038086;28;20180;-71
2023/02/26 09:38:16;;;;;;;1.38;1.20;;;5.00;98.60;;;;;;5037678;28;20300;-71
2023/02/26 09:41:03;;;;;;;2.30;1.60;;;5.00;98.50;;;;;;5037389;28;20176;-71
2023/02/26 09:43:32;;;;;;;1.67;1.33;;;5.00;98.50;;;;;;5050233;28;20242;-70
2023/02/26 09:46:10;;;;;;;2.50;1.63;;;5.00;98.40;;;;;;5065359;28;20202;-71
2023/02/26 09:48:39;;;;;;;3.25;1.80;;;5.00;98.40;;;;;;5037806;28;20211;-72
2023/02/26 09:51:10;;;;;;;2.20;1.67;;;5.00;98.30;;;;;;5071759;28;20182;-71
2023/02/26 09:53:43;;;;;;;2.72;1.25;;;5.00;98.50;;;;;;5054028;28;20991;-71
2023/02/26 09:56:24;;;;;;;4.75;1.77;;;5.00;98.40;;;;;;5033954;28;20185;-71
2023/02/26 09:58:52;;;;;;;2.42;1.73;;;5.00;98.30;;;;;;5066681;28;20215;-71
2023/02/26 10:01:34;;;;;;;2.20;1.20;;;5.00;98.20;;;;;;5059609;28;20191;-71
2023/02/26 10:04:25;;;;;;;2.40;1.42;;;5.00;98.20;;;;;;5057792;28;20801;-70
2023/02/26 10:07:00;;;;;;;3.20;1.60;;;5.00;98.20;;;;;;5050390;28;20291;-71
2023/02/26 10:10:02;;;;;;;2.45;1.45;;;5.10;98.20;;;;;;5069101;28;20659;-70
2023/02/26 10:12:31;;;;;;;3.20;1.33;;;5.10;98.10;;;;;;5063683;28;20215;-70
2023/02/26 10:15:00;;;;;;;3.15;1.38;;;5.10;98.00;;;;;;5053593;28;20185;-70
2023/02/26 10:18:01;;;;;;;1.90;1.00;;;5.10;97.90;;;;;;5029325;28;20213;-71
2023/02/26 10:20:34;;;;;;;2.05;1.40;;;5.10;97.80;;;;;;5036661;28;20187;-71
2023/02/26 10:23:06;;;;;;;2.65;1.45;;;5.10;97.90;;;;;;5071168;28;20184;-71
2023/02/26 10:25:52;;;;;;;2.30;1.05;;;5.20;97.90;;;;;;5053625;28;20685;-71
2023/02/26 10:28:47;;;;;;;2.47;1.23;;;5.20;97.80;;;;;;5054711;28;20239;-71
2023/02/26 10:31:21;;;;;;;2.10;1.00;;;5.20;97.70;;;;;;5029409;28;20211;-71
2023/02/26 10:33:54;;;;;;;1.20;1.10;;;5.20;98.10;;;;;;5038835;28;20180;-72
2023/02/26 10:36:26;;;;;;;1.75;1.10;;;5.20;97.70;;;;;;5055297;28;20219;-72
2023/02/26 10:39:02;;;;;;;2.63;1.10;;;5.20;97.70;;;;;;5038549;28;20206;-71
2023/02/26 10:41:38;;;;;;;1.80;1.30;;;5.20;97.70;;;;;;5058379;28;20190;-71
2023/02/26 10:44:15;;;;;;;1.45;1.15;;;5.20;97.60;;;;;;5054628;28;20227;-72
2023/02/26 10:47:17;;;;;;;2.25;1.10;;;5.20;97.70;;;;;;5054854;28;20669;-71
2023/02/26 10:50:00;;;;;;;1.88;1.30;;;5.30;97.80;;;;;;5040033;28;20180;-70
2023/02/26 10:52:30;;;;;;;1.88;1.10;;;5.30;97.80;;;;;;5067239;28;20200;-71
2023/02/26 10:55:41;;;;;;;1.98;1.00;;;5.30;97.80;;;;;;5053969;28;20176;-71
2023/02/26 10:58:15;;;;;;;2.85;1.42;;;5.30;97.80;;;;;;5045416;28;20238;-71
2023/02/26 11:00:45;;;;;;;2.13;1.17;;;5.30;97.80;;;;;;5044270;28;20191;-71
2023/02/26 11:03:40;;;;;;;1.20;1.10;;;5.40;97.70;;;;;;5060228;28;20194;-71
2023/02/26 11:06:11;;;;;;;2.08;1.20;;;5.30;97.70;;;;;;5069845;28;20264;-70
2023/02/26 11:08:44;;;;;;;1.98;1.35;;;5.40;97.70;;;;;;5069522;28;20286;-71
2023/02/26 11:11:10;;;;;;;2.25;1.02;;;5.40;97.60;;;;;;5068984;28;20177;-71
2023/02/26 11:13:37;;;;;;;3.05;1.08;;;5.40;97.60;;;;;;5053456;28;20574;-71
2023/02/26 11:16:17;;;;;;;1.50;0.95;;;5.40;97.60;;;;;;5058049;28;20220;-71
2023/02/26 11:18:50;;;;;;;1.15;1.00;;;5.50;97.70;;;;;;5036715;28;20215;-71
2023/02/26 11:21:30;;;;;;;1.30;1.20;;;5.50;97.70;;;;;;5069829;28;20637;-70
2023/02/26 11:24:18;;;;;;;1.70;0.93;;;5.50;97.50;;;;;;5054342;28;20279;-71
2023/02/26 11:26:48;;;;;;;1.92;1.10;;;5.60;97.40;;;;;;5037498;28;20251;-71
2023/02/26 11:29:21;;;;;;;1.65;0.95;;;5.60;97.40;;;;;;5087470;28;20179;-71
2023/02/26 11:31:51;;;;;;;1.55;0.95;;;5.60;97.30;;;;;;5033499;28;20549;-70
2023/02/26 11:34:23;;;;;;;1.40;1.00;;;5.60;97.30;;;;;;5040287;28;20630;-71
2023/02/26 11:36:57;;;;;;;1.27;0.95;;;5.60;97.30;;;;;;5034149;28;20279;-71
2023/02/26 11:39:25;;;;;;;3.45;1.17;;;5.60;97.20;;;;;;5058590;28;20279;-71
2023/02/26 11:41:56;;;;;;;1.52;1.00;;;5.60;97.10;;;;;;5051481;28;20197;-71
2023/02/26 11:44:44;;;;;;;1.45;1.08;;;5.70;97.10;;;;;;5071273;28;20207;-70
2023/02/26 11:47:14;;;;;;;3.22;1.10;;;5.70;96.90;;;;;;5070504;28;20199;-71
2023/02/26 11:49:50;;;;;;;2.35;1.08;;;5.70;96.80;;;;;;5052414;28;20176;-71
2023/02/26 11:52:31;;;;;;;3.00;1.08;;;5.70;96.80;;;;;;5066367;28;20282;-70
2023/02/26 11:55:47;;;;;;;1.73;0.85;;;5.70;96.70;;;;;;5070024;28;20174;-71
2023/02/26 11:58:19;;;;;;;1.23;1.13;;;5.80;96.60;;;;;;5047228;28;20290;-71
2023/02/26 12:00:48;;;;;;;1.13;0.93;;;5.70;96.60;;;;;;5036413;28;20180;-70
2023/02/26 12:03:22;;;;;;;1.40;1.10;;;5.80;96.50;;;;;;5065711;28;20558;-71
2023/02/26 12:05:52;;;;;;;2.20;0.95;;;5.80;96.40;;;;;;5070220;28;20689;-71
2023/02/26 12:08:37;;;;;;;1.73;1.35;;;5.80;96.20;;;;;;5070094;28;20203;-71
2023/02/26 12:11:25;;;;;;;2.83;0.88;;;5.80;96.30;;;;;;5032031;28;20178;-71
2023/02/26 12:14:12;;;;;;;1.90;0.93;;;5.90;96.40;;;;;;5061977;28;20179;-71
2023/02/26 12:17:05;;;;;;;1.77;0.93;;;5.90;96.20;;;;;;5085650;28;20195;-71
2023/02/26 12:19:41;;;;;;;3.67;0.90;;;5.90;96.10;;;;;;5048115;28;20201;-73
2023/02/26 12:22:19;;;;;;;1.50;1.08;;;5.90;95.80;;;;;;5040248;28;20188;-72
2023/02/26 12:24:54;;;;;;;3.72;1.40;;;5.90;95.90;;;;;;5059497;28;20221;-72
2023/02/26 12:28:07;;;;;;;2.40;1.20;;;5.90;96.00;;;;;;5042965;28;20218;-72
2023/02/26 12:31:00;;;;;;;1.30;0.90;;;5.90;96.00;;;;;;5017901;28;20288;-72
2023/02/26 12:33:29;;;;;;;1.88;1.13;;;5.90;96.10;;;;;;5034661;28;20565;-72
2023/02/26 12:36:37;;;;;;;1.98;1.00;;;5.90;96.00;;;;;;5059575;28;20215;-72
2023/02/26 12:39:29;;;;;;;3.10;1.60;;;5.90;96.00;;;;;;5065914;28;20178;-72
2023/02/26 12:42:17;;;;;;;1.23;0.82;;;5.90;95.90;;;;;;5057762;28;20570;-71
2023/02/26 12:44:58;;;;;;;1.10;0.95;;;6.00;95.80;;;;;;5037343;28;20255;-70
2023/02/26 12:47:32;;;;;;;2.95;1.00;;;6.00;95.60;;;;;;5054895;28;20200;-71
2023/02/26 12:50:11;;;;;;;1.25;1.00;;;5.90;95.40;;;;;;5055009;28;20638;-71
2023/02/26 12:52:45;;;;;;;1.50;0.90;;;6.00;95.50;;;;;;5055201;28;20607;-70
2023/02/26 12:55:51;;;;;;;2.60;1.67;;;6.00;95.50;;;;;;5055119;28;20177;-72
2023/02/26 12:58:52;;;;;;;1.65;0.80;;;6.00;95.60;;;;;;5072651;28;20283;-71
2023/02/26 13:01:48;;;;;;;5.90;1.10;;;6.00;95.60;;;;;;5057710;28;20288;-71
2023/02/26 13:04:41;;;;;;;1.10;0.90;;;6.00;95.60;;;;;;5056567;28;20649;-71
2023/02/26 13:07:17;;;;;;;1.02;0.90;;;6.00;95.60;;;;;;5087368;28;20466;-71
2023/02/26 13:10:04;;;;;;;1.50;1.20;;;6.00;95.50;;;;;;5053236;28;20575;-71
2023/02/26 13:12:54;;;;;;;1.50;1.10;;;6.00;95.20;;;;;;5071712;28;20679;-71
2023/02/26 13:15:38;;;;;;;2.15;1.15;;;6.00;95.10;;;;;;5071966;28;20426;-71
2023/02/26 13:19:02;;;;;;;2.55;1.10;;;6.10;95.10;;;;;;5037056;28;20210;-71
2023/02/26 13:21:45;;;;;;;1.70;1.25;;;6.10;95.20;;;;;;5031934;28;20669;-71
2023/02/26 13:24:17;;;;;;;2.20;1.27;;;6.00;95.30;;;;;;5071664;28;20559;-71
2023/02/26 13:26:46;;;;;;;2.00;1.10;;;6.00;95.50;;;;;;5071225;28;20177;-71
2023/02/26 13:29:23;;;;;;;3.67;1.50;;;6.10;95.60;;;;;;5070853;28;20172;-71
2023/02/26 13:31:55;;;;;;;3.35;1.27;;;6.00;95.60;;;;;;5053462;28;20176;-71
2023/02/26 13:34:25;;;;;;;2.00;1.42;;;6.10;95.50;;;;;;5053604;28;20208;-70
2023/02/26 13:36:53;;;;;;;1.25;0.75;;;6.10;95.60;;;;;;5020994;28;20247;-71